sensor_id;sensor_type;location;lat;lon;timestamp;pressure;altitude;pressure_sealevel;temperature;humidity
59274;BME280;45044;41.572;24.730;2023-02-14T00:00:48;92448.09;;;-4.48;100.00
59274;BME280;45044;41.572;24.730;2023-02-14T00:03:16;92442.19;;;-4.49;100.00
59274;BME280;45044;41.572;24.730;2023-02-14T00:05:42;92451.56;;;-4.75;100.00
59274;BME280;45044;41.572;24.730;2023-02-14T00:08:09;92442.03;;;-4.85;100.00
59274;BME280;45044;41.572;24.730;2023-02-14T00:10:36;92448.31;;;-4.60;100.00
59274;BME280;45044;41.572;24.730;2023-02-14T00:13:03;92439.06;;;-4.61;100.00
59274;BME280;45044;41.572;24.730;2023-02-14T00:15:30;92441.38;;;-4.60;100.00
59274;BME280;45044;41.572;24.730;2023-02-14T00:17:57;92446.97;;;-4.73;100.00
59274;BME280;45044;41.572;24.730;2023-02-14T00:20:27;92444.06;;;-4.93;100.00
59274;BME280;45044;41.572;24.730;2023-02-14T00:22:54;92451.97;;;-4.99;100.00
59274;BME280;45044;41.572;24.730;2023-02-14T00:25:21;92446.09;;;-4.95;100.00
59274;BME280;45044;41.572;24.730;2023-02-14T00:27:48;92442.50;;;-4.94;100.00
59274;BME280;45044;41.572;24.730;2023-02-14T00:30:15;92445.59;;;-4.91;100.00
59274;BME280;45044;41.572;24.730;2023-02-14T00:32:42;92443.53;;;-4.95;100.00
59274;BME280;45044;41.572;24.730;2023-02-14T00:35:09;92441.44;;;-4.98;100.00
59274;BME280;45044;41.572;24.730;2023-02-14T00:37:36;92430.16;;;-5.02;100.00
59274;BME280;45044;41.572;24.730;2023-02-14T00:40:05;92432.22;;;-4.99;100.00
59274;BME280;45044;41.572;24.730;2023-02-14T00:42:32;92416.06;;;-4.94;100.00
59274;BME280;45044;41.572;24.730;2023-02-14T00:44:59;92414.03;;;-4.92;100.00
59274;BME280;45044;41.572;24.730;2023-02-14T00:47:26;92368.66;;;-5.40;100.00
59274;BME280;45044;41.572;24.730;2023-02-14T00:49:53;92416.25;;;-5.11;100.00
59274;BME280;45044;41.572;24.730;2023-02-14T00:52:19;92415.75;;;-5.08;100.00
59274;BME280;45044;41.572;24.730;2023-02-14T00:54:46;92407.78;;;-5.07;100.00
59274;BME280;45044;41.572;24.730;2023-02-14T00:57:13;92396.47;;;-5.16;100.00
59274;BME280;45044;41.572;24.730;2023-02-14T00:59:41;92393.56;;;-5.30;100.00
59274;BME280;45044;41.572;24.730;2023-02-14T01:02:07;92390.03;;;-5.24;100.00
59274;BME280;45044;41.572;24.730;2023-02-14T01:04:34;92387.47;;;-5.24;100.00
59274;BME280;45044;41.572;24.730;2023-02-14T01:07:01;92376.16;;;-5.28;100.00
59274;BME280;45044;41.572;24.730;2023-02-14T01:09:28;92372.81;;;-5.23;100.00
59274;BME280;45044;41.572;24.730;2023-02-14T01:11:54;92376.63;;;-5.36;100.00
59274;BME280;45044;41.572;24.730;2023-02-14T01:14:21;92385.63;;;-5.29;100.00
59274;BME280;45044;41.572;24.730;2023-02-14T01:16:48;92379.25;;;-5.26;100.00
59274;BME280;45044;41.572;24.730;2023-02-14T01:19:15;92376.66;;;-5.31;100.00
59274;BME280;45044;41.572;24.730;2023-02-14T01:21:42;92385.44;;;-5.22;100.00
59274;BME280;45044;41.572;24.730;2023-02-14T01:24:09;92387.31;;;-5.45;100.00
59274;BME280;45044;41.572;24.730;2023-02-14T01:26:38;92379.19;;;-5.36;100.00
59274;BME280;45044;41.572;24.730;2023-02-14T01:29:05;92376.13;;;-5.33;100.00
59274;BME280;45044;41.572;24.730;2023-02-14T01:31:33;92378.22;;;-5.20;100.00
59274;BME280;45044;41.572;24.730;2023-02-14T01:34:01;92377.53;;;-5.10;100.00
59274;BME280;45044;41.572;24.730;2023-02-14T01:36:37;92371.56;;;-5.21;100.00
59274;BME280;45044;41.572;24.730;2023-02-14T01:39:07;92375.63;;;-5.30;100.00
59274;BME280;45044;41.572;24.730;2023-02-14T01:41:36;92377.22;;;-5.62;100.00
59274;BME280;45044;41.572;24.730;2023-02-14T01:46:59;92380.69;;;-5.79;100.00
59274;BME280;45044;41.572;24.730;2023-02-14T01:49:30;92379.94;;;-5.74;100.00
59274;BME280;45044;41.572;24.730;2023-02-14T01:54:51;92382.31;;;-6.00;100.00
59274;BME280;45044;41.572;24.730;2023-02-14T01:57:21;92388.03;;;-5.93;100.00
59274;BME280;45044;41.572;24.730;2023-02-14T01:59:52;92379.63;;;-5.83;100.00
59274;BME280;45044;41.572;24.730;2023-02-14T02:02:21;92382.97;;;-5.82;100.00
59274;BME280;45044;41.572;24.730;2023-02-14T02:04:53;92380.44;;;-5.77;100.00
59274;BME280;45044;41.572;24.730;2023-02-14T02:07:23;92381.97;;;-5.76;100.00
59274;BME280;45044;41.572;24.730;2023-02-14T02:09:54;92374.28;;;-5.76;100.00
59274;BME280;45044;41.572;24.730;2023-02-14T02:12:23;92370.47;;;-5.73;100.00
59274;BME280;45044;41.572;24.730;2023-02-14T02:14:53;92372.78;;;-5.72;100.00
59274;BME280;45044;41.572;24.730;2023-02-14T02:17:51;92369.34;;;-5.88;100.00
59274;BME280;45044;41.572;24.730;2023-02-14T02:26:49;92369.28;;;-5.60;100.00
59274;BME280;45044;41.572;24.730;2023-02-14T02:39:48;92372.78;;;-6.05;100.00
59274;BME280;45044;41.572;24.730;2023-02-14T02:45:01;92366.13;;;-6.11;100.00
59274;BME280;45044;41.572;24.730;2023-02-14T02:50:28;92353.75;;;-5.81;100.00
59274;BME280;45044;41.572;24.730;2023-02-14T02:53:47;92350.22;;;-5.75;100.00
59274;BME280;45044;41.572;24.730;2023-02-14T02:56:21;92346.03;;;-5.86;100.00
59274;BME280;45044;41.572;24.730;2023-02-14T02:59:23;92348.34;;;-5.85;100.00
59274;BME280;45044;41.572;24.730;2023-02-14T03:04:22;92350.19;;;-6.18;100.00
59274;BME280;45044;41.572;24.730;2023-02-14T03:07:09;92361.25;;;-6.40;100.00
59274;BME280;45044;41.572;24.730;2023-02-14T03:09:57;92349.97;;;-6.44;100.00
59274;BME280;45044;41.572;24.730;2023-02-14T03:23:30;92330.91;;;-5.93;100.00
59274;BME280;45044;41.572;24.730;2023-02-14T03:26:19;92324.00;;;-5.93;100.00
59274;BME280;45044;41.572;24.730;2023-02-14T03:28:52;92326.72;;;-6.38;100.00
59274;BME280;45044;41.572;24.730;2023-02-14T03:31:29;92324.53;;;-6.56;100.00
59274;BME280;45044;41.572;24.730;2023-02-14T03:34:03;92328.81;;;-6.34;100.00
59274;BME280;45044;41.572;24.730;2023-02-14T03:36:39;92315.38;;;-6.14;100.00
59274;BME280;45044;41.572;24.730;2023-02-14T03:41:52;92302.25;;;-5.85;100.00
59274;BME280;45044;41.572;24.730;2023-02-14T03:44:24;92301.84;;;-5.71;100.00
59274;BME280;45044;41.572;24.730;2023-02-14T03:46:57;92310.81;;;-5.69;100.00
59274;BME280;45044;41.572;24.730;2023-02-14T03:49:30;92312.91;;;-6.04;100.00
59274;BME280;45044;41.572;24.730;2023-02-14T03:52:01;92314.44;;;-6.08;100.00
59274;BME280;45044;41.572;24.730;2023-02-14T03:54:29;92307.28;;;-6.39;100.00
59274;BME280;45044;41.572;24.730;2023-02-14T03:59:31;92284.50;;;-5.97;100.00
59274;BME280;45044;41.572;24.730;2023-02-14T04:02:11;92257.31;;;-6.03;100.00
59274;BME280;45044;41.572;24.730;2023-02-14T04:04:45;92288.97;;;-5.82;100.00
59274;BME280;45044;41.572;24.730;2023-02-14T04:07:15;92284.72;;;-5.60;100.00
59274;BME280;45044;41.572;24.730;2023-02-14T04:09:43;92285.16;;;-5.74;100.00
59274;BME280;45044;41.572;24.730;2023-02-14T04:12:10;92282.91;;;-6.08;100.00
59274;BME280;45044;41.572;24.730;2023-02-14T04:14:38;92279.50;;;-6.19;100.00
59274;BME280;45044;41.572;24.730;2023-02-14T04:17:05;92289.88;;;-5.98;100.00
59274;BME280;45044;41.572;24.730;2023-02-14T04:19:51;92288.88;;;-5.92;100.00
59274;BME280;45044;41.572;24.730;2023-02-14T04:22:18;92291.72;;;-5.89;100.00
59274;BME280;45044;41.572;24.730;2023-02-14T04:24:45;92286.13;;;-5.85;100.00
59274;BME280;45044;41.572;24.730;2023-02-14T04:27:12;92296.47;;;-5.65;100.00
59274;BME280;45044;41.572;24.730;2023-02-14T04:29:41;92274.88;;;-5.79;100.00
59274;BME280;45044;41.572;24.730;2023-02-14T04:32:11;92280.81;;;-6.17;100.00
59274;BME280;45044;41.572;24.730;2023-02-14T04:34:39;92249.47;;;-6.34;100.00
59274;BME280;45044;41.572;24.730;2023-02-14T04:37:06;92271.19;;;-6.37;100.00
59274;BME280;45044;41.572;24.730;2023-02-14T04:39:33;92267.50;;;-6.19;100.00
59274;BME280;45044;41.572;24.730;2023-02-14T04:42:01;92248.75;;;-6.25;100.00
59274;BME280;45044;41.572;24.730;2023-02-14T04:44:28;92256.69;;;-6.26;100.00
59274;BME280;45044;41.572;24.730;2023-02-14T04:46:55;92253.63;;;-6.23;100.00
59274;BME280;45044;41.572;24.730;2023-02-14T04:49:23;92227.72;;;-6.32;100.00
59274;BME280;45044;41.572;24.730;2023-02-14T04:51:49;92243.75;;;-6.04;100.00
59274;BME280;45044;41.572;24.730;2023-02-14T04:54:16;92250.16;;;-6.06;100.00
59274;BME280;45044;41.572;24.730;2023-02-14T04:56:43;92256.28;;;-6.13;100.00
59274;BME280;45044;41.572;24.730;2023-02-14T04:59:10;92261.78;;;-6.31;100.00
59274;BME280;45044;41.572;24.730;2023-02-14T05:01:37;92261.88;;;-6.49;100.00
59274;BME280;45044;41.572;24.730;2023-02-14T05:04:03;92264.34;;;-6.31;100.00
59274;BME280;45044;41.572;24.730;2023-02-14T05:06:31;92269.03;;;-6.18;100.00
59274;BME280;45044;41.572;24.730;2023-02-14T05:08:58;92264.72;;;-6.12;100.00
59274;BME280;45044;41.572;24.730;2023-02-14T05:11:29;92264.47;;;-6.10;100.00
59274;BME280;45044;41.572;24.730;2023-02-14T05:13:56;92260.16;;;-5.99;100.00
59274;BME280;45044;41.572;24.730;2023-02-14T05:16:23;92245.75;;;-6.16;100.00
59274;BME280;45044;41.572;24.730;2023-02-14T05:18:50;92251.84;;;-6.55;100.00
59274;BME280;45044;41.572;24.730;2023-02-14T05:21:17;92250.56;;;-6.58;100.00
59274;BME280;45044;41.572;24.730;2023-02-14T05:23:43;92246.38;;;-6.37;100.00
59274;BME280;45044;41.572;24.730;2023-02-14T05:26:10;92247.66;;;-6.34;100.00
59274;BME280;45044;41.572;24.730;2023-02-14T05:28:37;92242.53;;;-6.67;100.00
59274;BME280;45044;41.572;24.730;2023-02-14T05:31:08;92251.44;;;-6.75;100.00
59274;BME280;45044;41.572;24.730;2023-02-14T05:33:35;92244.94;;;-6.88;100.00
59274;BME280;45044;41.572;24.730;2023-02-14T05:36:02;92246.22;;;-6.57;100.00
59274;BME280;45044;41.572;24.730;2023-02-14T05:38:29;92253.53;;;-6.39;100.00
59274;BME280;45044;41.572;24.730;2023-02-14T05:40:56;92253.09;;;-6.25;100.00
59274;BME280;45044;41.572;24.730;2023-02-14T05:43:23;92252.69;;;-6.11;100.00
59274;BME280;45044;41.572;24.730;2023-02-14T05:45:51;92215.19;;;-6.28;100.00
59274;BME280;45044;41.572;24.730;2023-02-14T05:48:19;92245.81;;;-6.44;100.00
59274;BME280;45044;41.572;24.730;2023-02-14T05:50:46;92252.50;;;-6.38;100.00
59274;BME280;45044;41.572;24.730;2023-02-14T05:53:13;92247.47;;;-6.27;100.00
59274;BME280;45044;41.572;24.730;2023-02-14T05:55:40;92252.50;;;-6.38;100.00
59274;BME280;45044;41.572;24.730;2023-02-14T05:58:07;92256.09;;;-6.39;100.00
59274;BME280;45044;41.572;24.730;2023-02-14T06:00:34;92258.84;;;-6.45;100.00
59274;BME280;45044;41.572;24.730;2023-02-14T06:03:05;92251.56;;;-6.26;100.00
59274;BME280;45044;41.572;24.730;2023-02-14T06:05:32;92245.50;;;-6.15;100.00
59274;BME280;45044;41.572;24.730;2023-02-14T06:07:58;92247.56;;;-6.11;100.00
59274;BME280;45044;41.572;24.730;2023-02-14T06:10:26;92238.16;;;-5.95;100.00
59274;BME280;45044;41.572;24.730;2023-02-14T06:12:54;92241.19;;;-6.09;100.00
59274;BME280;45044;41.572;24.730;2023-02-14T06:15:21;92239.47;;;-5.93;100.00
59274;BME280;45044;41.572;24.730;2023-02-14T06:17:55;92240.50;;;-5.89;100.00
59274;BME280;45044;41.572;24.730;2023-02-14T06:20:23;92233.38;;;-5.76;100.00
59274;BME280;45044;41.572;24.730;2023-02-14T06:22:50;92230.94;;;-5.50;100.00
59274;BME280;45044;41.572;24.730;2023-02-14T06:25:18;92225.59;;;-5.43;100.00
59274;BME280;45044;41.572;24.730;2023-02-14T06:27:46;92224.88;;;-5.23;100.00
59274;BME280;45044;41.572;24.730;2023-02-14T06:30:16;92216.66;;;-5.25;100.00
59274;BME280;45044;41.572;24.730;2023-02-14T06:32:43;92215.19;;;-5.05;100.00
59274;BME280;45044;41.572;24.730;2023-02-14T06:35:13;92210.09;;;-4.79;100.00
59274;BME280;45044;41.572;24.730;2023-02-14T06:37:40;92206.78;;;-4.69;100.00
59274;BME280;45044;41.572;24.730;2023-02-14T06:40:08;92201.81;;;-3.82;100.00
59274;BME280;45044;41.572;24.730;2023-02-14T06:42:35;92208.16;;;-2.22;100.00
59274;BME280;45044;41.572;24.730;2023-02-14T06:45:03;92212.66;;;-0.53;100.00
59274;BME280;45044;41.572;24.730;2023-02-14T06:47:30;92202.06;;;1.09;84.01
59274;BME280;45044;41.572;24.730;2023-02-14T06:50:01;92195.47;;;2.49;69.60
59274;BME280;45044;41.572;24.730;2023-02-14T06:52:31;92182.63;;;3.38;62.51
59274;BME280;45044;41.572;24.730;2023-02-14T06:54:58;92180.75;;;4.79;57.48
59274;BME280;45044;41.572;24.730;2023-02-14T06:57:25;92178.91;;;5.86;52.64
59274;BME280;45044;41.572;24.730;2023-02-14T06:59:52;92174.97;;;5.93;49.00
59274;BME280;45044;41.572;24.730;2023-02-14T07:02:19;92164.72;;;7.22;45.38
59274;BME280;45044;41.572;24.730;2023-02-14T07:04:50;92152.00;;;8.38;44.66
59274;BME280;45044;41.572;24.730;2023-02-14T07:07:16;92155.56;;;7.28;46.33
59274;BME280;45044;41.572;24.730;2023-02-14T07:09:44;92167.09;;;5.68;49.93
59274;BME280;45044;41.572;24.730;2023-02-14T07:12:11;92167.25;;;5.29;51.70
59274;BME280;45044;41.572;24.730;2023-02-14T07:14:38;92162.38;;;5.61;51.24
59274;BME280;45044;41.572;24.730;2023-02-14T07:17:04;92164.59;;;7.18;48.14
59274;BME280;45044;41.572;24.730;2023-02-14T07:19:31;92165.66;;;7.99;44.24
59274;BME280;45044;41.572;24.730;2023-02-14T07:21:58;92163.31;;;8.91;43.99
59274;BME280;45044;41.572;24.730;2023-02-14T07:24:24;92149.63;;;8.49;43.22
59274;BME280;45044;41.572;24.730;2023-02-14T07:26:51;92141.00;;;8.65;42.73
59274;BME280;45044;41.572;24.730;2023-02-14T07:29:18;92145.50;;;10.19;39.89
59274;BME280;45044;41.572;24.730;2023-02-14T07:31:44;92140.72;;;9.22;40.19
59274;BME280;45044;41.572;24.730;2023-02-14T07:34:11;92135.72;;;8.97;40.07
59274;BME280;45044;41.572;24.730;2023-02-14T07:36:38;92130.59;;;10.27;37.68
59274;BME280;45044;41.572;24.730;2023-02-14T07:39:05;92131.81;;;11.73;36.40
59274;BME280;45044;41.572;24.730;2023-02-14T07:41:32;92133.97;;;12.40;36.67
59274;BME280;45044;41.572;24.730;2023-02-14T07:43:59;92118.91;;;13.64;34.27
59274;BME280;45044;41.572;24.730;2023-02-14T07:46:26;92129.88;;;12.99;34.17
59274;BME280;45044;41.572;24.730;2023-02-14T07:48:52;92130.25;;;11.03;35.34
59274;BME280;45044;41.572;24.730;2023-02-14T07:51:19;92134.88;;;10.12;38.15
59274;BME280;45044;41.572;24.730;2023-02-14T07:53:46;92135.56;;;10.09;39.50
59274;BME280;45044;41.572;24.730;2023-02-14T07:56:14;92130.69;;;11.40;37.64
59274;BME280;45044;41.572;24.730;2023-02-14T07:58:40;92121.22;;;12.45;34.06
59274;BME280;45044;41.572;24.730;2023-02-14T08:01:07;92117.75;;;11.96;35.56
59274;BME280;45044;41.572;24.730;2023-02-14T08:03:34;92123.41;;;10.98;37.08
59274;BME280;45044;41.572;24.730;2023-02-14T08:06:01;92122.66;;;10.47;37.25
59274;BME280;45044;41.572;24.730;2023-02-14T08:08:29;92114.72;;;10.67;37.44
59274;BME280;45044;41.572;24.730;2023-02-14T08:10:57;92106.63;;;10.80;36.56
59274;BME280;45044;41.572;24.730;2023-02-14T08:13:24;92103.81;;;12.33;35.49
59274;BME280;45044;41.572;24.730;2023-02-14T08:15:51;92094.56;;;13.25;35.25
59274;BME280;45044;41.572;24.730;2023-02-14T08:18:44;92083.47;;;13.87;32.81
59274;BME280;45044;41.572;24.730;2023-02-14T08:21:11;92061.53;;;12.19;33.87
59274;BME280;45044;41.572;24.730;2023-02-14T08:23:38;92079.88;;;13.28;32.93
59274;BME280;45044;41.572;24.730;2023-02-14T08:26:05;92076.72;;;14.11;33.13
59274;BME280;45044;41.572;24.730;2023-02-14T08:28:31;92065.75;;;14.06;32.29
59274;BME280;45044;41.572;24.730;2023-02-14T08:30:59;92064.22;;;13.75;33.24
59274;BME280;45044;41.572;24.730;2023-02-14T08:33:26;92064.59;;;13.70;33.56
59274;BME280;45044;41.572;24.730;2023-02-14T08:35:53;92065.53;;;13.25;32.77
59274;BME280;45044;41.572;24.730;2023-02-14T08:38:21;92070.31;;;10.89;35.14
59274;BME280;45044;41.572;24.730;2023-02-14T08:40:48;92073.47;;;11.33;35.33
59274;BME280;45044;41.572;24.730;2023-02-14T08:43:14;92071.50;;;11.60;34.43
59274;BME280;45044;41.572;24.730;2023-02-14T08:45:42;92061.22;;;11.48;35.18
59274;BME280;45044;41.572;24.730;2023-02-14T08:48:11;92077.72;;;11.10;33.61
59274;BME280;45044;41.572;24.730;2023-02-14T08:50:38;92075.09;;;10.83;34.77
59274;BME280;45044;41.572;24.730;2023-02-14T08:53:08;92079.69;;;11.17;35.29
59274;BME280;45044;41.572;24.730;2023-02-14T08:55:36;92088.34;;;9.89;36.69
59274;BME280;45044;41.572;24.730;2023-02-14T08:58:03;92080.91;;;9.72;37.37
59274;BME280;45044;41.572;24.730;2023-02-14T09:00:32;92073.47;;;11.02;35.95
59274;BME280;45044;41.572;24.730;2023-02-14T09:02:59;92071.56;;;10.99;36.16
59274;BME280;45044;41.572;24.730;2023-02-14T09:05:26;92087.69;;;10.19;37.15
59274;BME280;45044;41.572;24.730;2023-02-14T09:07:53;92090.25;;;9.09;38.66
59274;BME280;45044;41.572;24.730;2023-02-14T09:10:22;92092.19;;;9.72;37.40
59274;BME280;45044;41.572;24.730;2023-02-14T09:12:50;92085.22;;;10.07;35.92
59274;BME280;45044;41.572;24.730;2023-02-14T09:15:16;92081.50;;;10.32;34.83
59274;BME280;45044;41.572;24.730;2023-02-14T09:17:43;92077.78;;;10.60;35.02
59274;BME280;45044;41.572;24.730;2023-02-14T09:20:11;92080.88;;;10.93;35.08
59274;BME280;45044;41.572;24.730;2023-02-14T09:22:39;92075.97;;;11.56;34.25
59274;BME280;45044;41.572;24.730;2023-02-14T09:25:05;92071.00;;;12.27;33.21
59274;BME280;45044;41.572;24.730;2023-02-14T09:27:32;92072.19;;;12.93;31.42
59274;BME280;45044;41.572;24.730;2023-02-14T09:29:59;92069.19;;;12.99;30.92
59274;BME280;45044;41.572;24.730;2023-02-14T09:32:26;92070.06;;;13.21;32.54
59274;BME280;45044;41.572;24.730;2023-02-14T09:34:54;92076.28;;;11.89;30.79
59274;BME280;45044;41.572;24.730;2023-02-14T09:37:40;92072.75;;;13.32;30.06
59274;BME280;45044;41.572;24.730;2023-02-14T09:40:07;92077.38;;;13.57;30.09
59274;BME280;45044;41.572;24.730;2023-02-14T09:45:24;92063.84;;;12.88;32.86
59274;BME280;45044;41.572;24.730;2023-02-14T09:51:19;92062.00;;;12.92;32.09
59274;BME280;45044;41.572;24.730;2023-02-14T09:53:29;92049.38;;;12.60;31.48
59274;BME280;45044;41.572;24.730;2023-02-14T09:56:06;92051.44;;;12.92;32.21
59274;BME280;45044;41.572;24.730;2023-02-14T10:01:56;92032.75;;;13.26;31.09
59274;BME280;45044;41.572;24.730;2023-02-14T10:07:30;92041.09;;;13.50;32.14
59274;BME280;45044;41.572;24.730;2023-02-14T10:12:42;92041.50;;;12.67;32.18
59274;BME280;45044;41.572;24.730;2023-02-14T10:15:16;92027.34;;;12.93;32.93
59274;BME280;45044;41.572;24.730;2023-02-14T10:17:53;92028.91;;;13.13;31.46
59274;BME280;45044;41.572;24.730;2023-02-14T10:20:31;92026.75;;;13.48;32.07
59274;BME280;45044;41.572;24.730;2023-02-14T10:23:08;92026.81;;;13.62;31.58
59274;BME280;45044;41.572;24.730;2023-02-14T10:25:47;92011.75;;;14.10;30.76
59274;BME280;45044;41.572;24.730;2023-02-14T10:28:16;92021.59;;;13.99;31.57
59274;BME280;45044;41.572;24.730;2023-02-14T10:30:56;92012.50;;;13.85;30.53
59274;BME280;45044;41.572;24.730;2023-02-14T10:33:29;92016.69;;;14.16;31.23
59274;BME280;45044;41.572;24.730;2023-02-14T10:36:16;91985.31;;;14.21;30.90
59274;BME280;45044;41.572;24.730;2023-02-14T10:44:12;92012.47;;;13.67;30.91
59274;BME280;45044;41.572;24.730;2023-02-14T10:49:35;92004.09;;;13.36;30.51
59274;BME280;45044;41.572;24.730;2023-02-14T10:54:38;91987.59;;;13.83;30.89
59274;BME280;45044;41.572;24.730;2023-02-14T10:57:13;91978.03;;;13.30;30.24
59274;BME280;45044;41.572;24.730;2023-02-14T11:00:07;91976.28;;;14.11;30.93
59274;BME280;45044;41.572;24.730;2023-02-14T11:02:39;91964.19;;;14.03;30.53
59274;BME280;45044;41.572;24.730;2023-02-14T11:05:22;91963.75;;;14.48;30.52
59274;BME280;45044;41.572;24.730;2023-02-14T11:07:50;91963.06;;;14.08;29.32
59274;BME280;45044;41.572;24.730;2023-02-14T11:10:19;91974.00;;;14.06;29.96
59274;BME280;45044;41.572;24.730;2023-02-14T11:12:49;91943.78;;;13.67;29.69
59274;BME280;45044;41.572;24.730;2023-02-14T11:15:23;91969.13;;;13.94;29.66
59274;BME280;45044;41.572;24.730;2023-02-14T11:18:25;91966.47;;;13.68;30.30
59274;BME280;45044;41.572;24.730;2023-02-14T11:21:03;91956.53;;;13.10;30.18
59274;BME280;45044;41.572;24.730;2023-02-14T11:23:45;91953.31;;;12.64;29.87
59274;BME280;45044;41.572;24.730;2023-02-14T11:26:29;91952.38;;;13.13;30.93
59274;BME280;45044;41.572;24.730;2023-02-14T11:29:03;91940.00;;;14.19;30.28
59274;BME280;45044;41.572;24.730;2023-02-14T11:31:37;91940.41;;;13.74;30.50
59274;BME280;45044;41.572;24.730;2023-02-14T11:35:07;91940.41;;;13.63;30.33
59274;BME280;45044;41.572;24.730;2023-02-14T11:37:29;91938.31;;;12.87;30.40
59274;BME280;45044;41.572;24.730;2023-02-14T11:40:00;91934.69;;;13.32;30.15
59274;BME280;45044;41.572;24.730;2023-02-14T11:42:34;91915.03;;;13.18;30.53
59274;BME280;45044;41.572;24.730;2023-02-14T11:45:04;91916.09;;;12.84;31.74
59274;BME280;45044;41.572;24.730;2023-02-14T11:47:33;91903.25;;;12.75;30.91
59274;BME280;45044;41.572;24.730;2023-02-14T11:50:06;91909.03;;;13.14;31.80
59274;BME280;45044;41.572;24.730;2023-02-14T11:52:48;91910.22;;;13.71;31.44
59274;BME280;45044;41.572;24.730;2023-02-14T11:55:28;91897.69;;;14.27;30.83
59274;BME280;45044;41.572;24.730;2023-02-14T11:57:56;91890.94;;;13.89;31.42
59274;BME280;45044;41.572;24.730;2023-02-14T12:00:24;91893.94;;;13.51;30.45
59274;BME280;45044;41.572;24.730;2023-02-14T12:02:52;91887.94;;;13.76;30.82
59274;BME280;45044;41.572;24.730;2023-02-14T12:05:36;91889.38;;;13.08;30.78
59274;BME280;45044;41.572;24.730;2023-02-14T12:08:10;91871.97;;;12.74;31.01
59274;BME280;45044;41.572;24.730;2023-02-14T12:10:38;91881.06;;;12.98;31.04
59274;BME280;45044;41.572;24.730;2023-02-14T12:15:39;91878.06;;;13.11;32.28
59274;BME280;45044;41.572;24.730;2023-02-14T12:24:24;91862.28;;;13.62;31.55
59274;BME280;45044;41.572;24.730;2023-02-14T12:29:47;91855.81;;;13.92;32.01
59274;BME280;45044;41.572;24.730;2023-02-14T12:32:29;91860.00;;;13.42;31.95
59274;BME280;45044;41.572;24.730;2023-02-14T12:35:16;91857.00;;;13.58;31.59
59274;BME280;45044;41.572;24.730;2023-02-14T12:37:53;91870.56;;;13.38;31.32
59274;BME280;45044;41.572;24.730;2023-02-14T12:43:19;91872.00;;;12.88;32.34
59274;BME280;45044;41.572;24.730;2023-02-14T12:45:59;91871.28;;;13.02;31.97
59274;BME280;45044;41.572;24.730;2023-02-14T12:56:47;91840.63;;;11.72;33.83
59274;BME280;45044;41.572;24.730;2023-02-14T12:59:38;91842.81;;;12.26;33.86
59274;BME280;45044;41.572;24.730;2023-02-14T13:04:53;91845.69;;;11.43;34.92
59274;BME280;45044;41.572;24.730;2023-02-14T13:21:14;91827.69;;;10.30;37.22
59274;BME280;45044;41.572;24.730;2023-02-14T13:24:37;91823.06;;;10.51;38.05
59274;BME280;45044;41.572;24.730;2023-02-14T13:26:37;91830.66;;;10.60;37.98
59274;BME280;45044;41.572;24.730;2023-02-14T13:29:13;91830.00;;;10.66;37.59
59274;BME280;45044;41.572;24.730;2023-02-14T13:31:41;91829.16;;;10.24;38.22
59274;BME280;45044;41.572;24.730;2023-02-14T13:34:26;91836.97;;;10.21;37.32
59274;BME280;45044;41.572;24.730;2023-02-14T13:36:56;91835.81;;;9.87;38.46
59274;BME280;45044;41.572;24.730;2023-02-14T13:39:42;91849.59;;;10.07;38.29
59274;BME280;45044;41.572;24.730;2023-02-14T13:42:11;91845.91;;;10.16;39.05
59274;BME280;45044;41.572;24.730;2023-02-14T13:44:49;91851.94;;;10.16;37.56
59274;BME280;45044;41.572;24.730;2023-02-14T13:49:53;91854.06;;;9.76;39.48
59274;BME280;45044;41.572;24.730;2023-02-14T13:52:46;91852.13;;;9.46;40.50
59274;BME280;45044;41.572;24.730;2023-02-14T13:55:20;91853.03;;;9.30;40.95
59274;BME280;45044;41.572;24.730;2023-02-14T13:58:05;91841.59;;;9.42;40.33
59274;BME280;45044;41.572;24.730;2023-02-14T14:00:41;91852.75;;;9.12;39.51
59274;BME280;45044;41.572;24.730;2023-02-14T14:06:04;91850.88;;;8.89;41.46
59274;BME280;45044;41.572;24.730;2023-02-14T14:08:45;91844.63;;;8.74;41.53
59274;BME280;45044;41.572;24.730;2023-02-14T14:14:26;91856.00;;;8.42;42.67
59274;BME280;45044;41.572;24.730;2023-02-14T14:16:58;91862.22;;;8.14;42.46
59274;BME280;45044;41.572;24.730;2023-02-14T14:22:10;91862.66;;;8.36;42.81
59274;BME280;45044;41.572;24.730;2023-02-14T14:24:53;91864.97;;;8.41;42.72
59274;BME280;45044;41.572;24.730;2023-02-14T14:27:40;91872.44;;;8.39;44.21
59274;BME280;45044;41.572;24.730;2023-02-14T14:30:29;91874.34;;;8.22;45.15
59274;BME280;45044;41.572;24.730;2023-02-14T14:33:32;91876.00;;;8.31;43.39
59274;BME280;45044;41.572;24.730;2023-02-14T14:36:05;91874.91;;;8.12;44.11
59274;BME280;45044;41.572;24.730;2023-02-14T14:38:45;91873.50;;;7.46;43.51
59274;BME280;45044;41.572;24.730;2023-02-14T14:41:13;91871.50;;;7.23;44.33
59274;BME280;45044;41.572;24.730;2023-02-14T14:43:40;91875.97;;;7.39;45.54
59274;BME280;45044;41.572;24.730;2023-02-14T14:46:10;91870.91;;;7.14;46.76
59274;BME280;45044;41.572;24.730;2023-02-14T14:48:40;91882.31;;;7.38;45.16
59274;BME280;45044;41.572;24.730;2023-02-14T14:51:17;91882.19;;;7.66;45.08
59274;BME280;45044;41.572;24.730;2023-02-14T14:53:51;91876.53;;;7.48;45.39
59274;BME280;45044;41.572;24.730;2023-02-14T14:56:23;91867.69;;;7.37;45.03
59274;BME280;45044;41.572;24.730;2023-02-14T14:58:50;91872.06;;;7.16;45.78
59274;BME280;45044;41.572;24.730;2023-02-14T15:01:47;91868.19;;;6.94;46.07
59274;BME280;45044;41.572;24.730;2023-02-14T15:04:17;91881.19;;;6.62;46.09
59274;BME280;45044;41.572;24.730;2023-02-14T15:06:45;91882.19;;;6.57;46.66
59274;BME280;45044;41.572;24.730;2023-02-14T15:11:42;91879.78;;;5.69;50.22
59274;BME280;45044;41.572;24.730;2023-02-14T15:14:29;91873.38;;;5.67;51.66